Time;durP1;ratioP1;P1;durP2;ratioP2;P2;SDS_P1;SDS_P2;PMS_P1;PMS_P2;Temp;Humidity;BMP_temperature;BMP_pressure;BME280_temperature;BME280_humidity;BME280_pressure;Samples;Min_cycle;Max_cycle;Signal;HPM_P1;HPM_P2
2022/12/07 05:02:39;;;;;;;16.00;14.60;;;4.20;99.90;;;;;;6278941;22;20463;-64
2022/12/07 05:05:06;;;;;;;15.27;13.70;;;4.10;99.90;;;;;;6279942;22;20770;-63
2022/12/07 05:07:32;;;;;;;15.43;13.97;;;4.10;99.90;;;;;;6280276;22;20902;-64
2022/12/07 05:09:59;;;;;;;14.80;13.47;;;4.10;99.90;;;;;;6280619;22;20405;-65
2022/12/07 05:12:27;;;;;;;15.70;14.30;;;4.00;99.90;;;;;;6251529;22;20414;-64
2022/12/07 05:14:53;;;;;;;16.93;15.40;;;4.10;99.90;;;;;;6249313;23;20971;-64
2022/12/07 05:17:20;;;;;;;17.70;16.00;;;4.10;99.90;;;;;;6249764;23;20464;-64
2022/12/07 05:19:48;;;;;;;17.73;16.03;;;4.00;99.90;;;;;;6249743;23;20472;-63
2022/12/07 05:22:15;;;;;;;17.93;16.23;;;4.00;99.90;;;;;;6248167;22;20800;-63
2022/12/07 05:24:41;;;;;;;16.47;14.97;;;3.90;99.90;;;;;;6248356;23;20414;-63
2022/12/07 05:27:08;;;;;;;16.80;15.30;;;3.90;99.90;;;;;;6247996;23;20447;-63
2022/12/07 05:29:35;;;;;;;15.20;13.80;;;3.90;99.90;;;;;;6248222;23;20415;-64
2022/12/07 05:32:01;;;;;;;17.93;16.17;;;3.90;99.90;;;;;;6247367;22;20938;-64
2022/12/07 05:34:28;;;;;;;16.13;14.67;;;3.90;99.90;;;;;;6247963;23;20469;-64
2022/12/07 05:36:56;;;;;;;16.30;14.77;;;3.90;99.90;;;;;;6248412;23;20781;-63
2022/12/07 05:39:22;;;;;;;16.37;14.67;;;3.90;99.90;;;;;;6247547;23;20411;-64
2022/12/07 05:44:33;;;;;;;17.97;16.07;;;3.90;99.90;;;;;;6258390;23;20386;-64
2022/12/07 05:47:00;;;;;;;16.30;14.67;;;3.90;99.90;;;;;;6247773;23;20399;-64
2022/12/07 05:49:26;;;;;;;19.37;15.07;;;3.90;99.90;;;;;;6247770;23;20418;-64
2022/12/07 05:51:53;;;;;;;14.73;13.33;;;3.90;99.90;;;;;;6247645;22;20484;-64
2022/12/07 05:54:21;;;;;;;14.73;13.40;;;4.00;99.90;;;;;;6247921;23;20411;-63
2022/12/07 05:56:47;;;;;;;16.50;14.90;;;4.00;99.90;;;;;;6247520;23;20488;-64
2022/12/07 05:59:23;;;;;;;16.10;14.50;;;4.00;99.90;;;;;;6247339;23;20429;-63
2022/12/07 06:01:50;;;;;;;15.80;14.30;;;4.00;99.90;;;;;;6247300;22;20438;-63
2022/12/07 06:04:17;;;;;;;16.20;14.60;;;4.00;99.90;;;;;;6247682;23;20418;-64
2022/12/07 06:06:44;;;;;;;15.23;13.70;;;4.00;99.90;;;;;;6248157;23;20876;-64
2022/12/07 06:09:12;;;;;;;14.80;13.40;;;4.10;99.90;;;;;;6248040;23;20465;-64
2022/12/07 06:14:24;;;;;;;14.17;12.77;;;4.10;99.90;;;;;;6248153;23;20426;-63
2022/12/07 06:16:51;;;;;;;14.30;12.90;;;4.10;99.90;;;;;;6247167;23;20518;-64
2022/12/07 06:19:18;;;;;;;15.60;14.07;;;4.10;99.90;;;;;;6247182;23;20469;-63
2022/12/07 06:21:45;;;;;;;14.83;13.33;;;4.10;99.90;;;;;;6247116;22;20434;-63
2022/12/07 06:24:12;;;;;;;15.80;14.23;;;4.10;99.90;;;;;;6248749;23;20411;-64
2022/12/07 06:26:40;;;;;;;15.47;13.87;;;4.10;99.90;;;;;;6249191;23;20407;-64
2022/12/07 06:29:07;;;;;;;15.23;13.80;;;4.10;99.90;;;;;;6248629;23;20782;-64
2022/12/07 06:31:34;;;;;;;15.70;14.20;;;4.00;99.90;;;;;;6248035;22;21001;-65
2022/12/07 06:34:02;;;;;;;16.07;14.57;;;4.00;99.90;;;;;;6247932;23;20414;-66
2022/12/07 06:36:29;;;;;;;16.03;14.43;;;4.00;99.90;;;;;;6248194;23;20442;-66
2022/12/07 06:38:56;;;;;;;13.83;12.43;;;4.00;99.90;;;;;;6247814;23;20465;-65
2022/12/07 06:41:22;;;;;;;14.10;12.53;;;4.00;99.90;;;;;;6248132;22;20434;-65
2022/12/07 06:43:51;;;;;;;15.63;13.97;;;4.00;99.90;;;;;;6247832;23;20411;-66
2022/12/07 06:46:17;;;;;;;12.23;10.93;;;4.00;99.90;;;;;;6248165;23;20730;-66
2022/12/07 06:48:44;;;;;;;11.87;10.73;;;4.00;99.90;;;;;;6247614;23;20411;-65
2022/12/07 06:51:11;;;;;;;11.63;10.63;;;4.00;99.90;;;;;;6248086;22;20981;-66
2022/12/07 06:53:38;;;;;;;12.50;11.40;;;4.00;99.90;;;;;;6247554;23;20418;-65
2022/12/07 06:56:05;;;;;;;12.37;11.17;;;4.00;99.90;;;;;;6247276;23;20434;-66
2022/12/07 06:58:32;;;;;;;11.93;10.80;;;4.00;99.90;;;;;;6247181;23;20415;-66
2022/12/07 07:01:00;;;;;;;14.23;11.30;;;4.00;99.90;;;;;;6247226;22;20492;-65
2022/12/07 07:03:27;;;;;;;10.93;9.83;;;4.00;99.90;;;;;;6247477;23;20399;-65
2022/12/07 07:05:53;;;;;;;11.67;10.67;;;4.00;99.90;;;;;;6247296;23;20411;-65
2022/12/07 07:08:20;;;;;;;10.20;9.17;;;4.00;99.90;;;;;;6247255;23;20410;-65
2022/12/07 07:10:47;;;;;;;11.40;10.30;;;4.00;99.90;;;;;;6247113;22;20435;-64
2022/12/07 07:13:13;;;;;;;13.20;11.90;;;4.00;99.90;;;;;;6246926;23;20410;-65
2022/12/07 07:15:40;;;;;;;10.93;9.60;;;4.10;99.90;;;;;;6247953;23;20435;-66
2022/12/07 07:18:08;;;;;;;11.30;10.20;;;4.60;99.90;;;;;;6247033;23;20418;-66
2022/12/07 07:20:35;;;;;;;10.60;9.60;;;4.90;99.90;;;;;;6247064;22;20461;-66
2022/12/07 07:23:01;;;;;;;10.80;9.73;;;5.20;99.90;;;;;;6246930;23;20460;-65
2022/12/07 07:25:28;;;;;;;10.87;8.63;;;5.50;99.90;;;;;;6246841;23;20457;-65
2022/12/07 07:27:55;;;;;;;9.30;8.40;;;5.60;99.90;;;;;;6246957;23;20411;-64
2022/12/07 07:30:22;;;;;;;9.27;8.40;;;5.70;99.90;;;;;;6247465;22;20461;-64
2022/12/07 07:32:49;;;;;;;9.50;8.70;;;5.70;99.90;;;;;;6247609;23;20464;-65
2022/12/07 07:35:17;;;;;;;10.47;9.47;;;5.70;99.90;;;;;;6249356;23;20411;-66
2022/12/07 07:37:43;;;;;;;10.23;9.27;;;5.60;99.90;;;;;;6248840;23;20782;-65
2022/12/07 07:40:11;;;;;;;9.00;8.20;;;5.50;99.90;;;;;;6248292;23;20944;-65
2022/12/07 07:42:37;;;;;;;8.60;7.80;;;5.40;99.90;;;;;;6247340;23;20954;-65
2022/12/07 07:45:05;;;;;;;9.63;8.80;;;5.40;99.90;;;;;;6247032;23;20407;-65
2022/12/07 07:47:31;;;;;;;8.70;8.00;;;5.30;99.90;;;;;;6246650;23;20485;-65
2022/12/07 07:49:58;;;;;;;9.40;8.60;;;5.20;99.90;;;;;;6246746;23;20411;-65
2022/12/07 07:52:27;;;;;;;9.80;8.90;;;5.20;99.90;;;;;;6246524;22;20452;-65
2022/12/07 07:54:53;;;;;;;8.90;8.10;;;5.10;99.90;;;;;;6246557;23;20411;-65
2022/12/07 07:57:20;;;;;;;8.47;7.77;;;5.10;99.90;;;;;;6246754;23;20435;-65
2022/12/07 07:59:47;;;;;;;8.87;8.17;;;5.00;99.90;;;;;;6246623;23;20469;-64
2022/12/07 08:02:15;;;;;;;9.93;8.93;;;5.10;99.90;;;;;;6246096;22;20443;-65
2022/12/07 08:04:42;;;;;;;8.20;7.50;;;5.00;99.90;;;;;;6246621;23;20411;-65
2022/12/07 08:07:09;;;;;;;8.83;8.03;;;5.00;99.90;;;;;;6246819;23;20434;-64
2022/12/07 08:09:37;;;;;;;8.90;8.20;;;5.10;99.90;;;;;;6246590;23;20415;-64
2022/12/07 08:12:04;;;;;;;9.07;8.17;;;5.10;99.90;;;;;;6246173;22;20485;-64
2022/12/07 08:14:31;;;;;;;8.03;7.33;;;5.10;99.90;;;;;;6247528;23;20415;-64
2022/12/07 08:16:58;;;;;;;11.23;9.77;;;5.10;99.90;;;;;;6246619;23;20489;-64
2022/12/07 08:19:25;;;;;;;11.40;8.53;;;5.10;99.90;;;;;;6246596;23;20785;-64
2022/12/07 08:21:52;;;;;;;8.63;7.70;;;5.10;99.90;;;;;;6246526;22;20509;-64
2022/12/07 08:24:18;;;;;;;8.33;7.53;;;5.10;99.90;;;;;;6246547;23;20791;-65
2022/12/07 08:26:46;;;;;;;9.60;8.37;;;5.20;99.90;;;;;;6246641;23;20406;-64
2022/12/07 08:29:13;;;;;;;8.70;7.90;;;5.20;99.90;;;;;;6246273;23;20410;-64
2022/12/07 08:31:40;;;;;;;8.23;7.53;;;5.30;99.90;;;;;;6246729;22;20430;-64
2022/12/07 08:34:06;;;;;;;8.27;7.53;;;5.40;99.90;;;;;;6246831;23;20787;-64
2022/12/07 08:36:33;;;;;;;9.23;8.30;;;5.40;99.90;;;;;;6246576;23;20434;-64
2022/12/07 08:39:00;;;;;;;9.13;8.33;;;5.50;99.90;;;;;;6246372;23;20411;-64
2022/12/07 08:41:27;;;;;;;8.90;8.10;;;5.50;99.90;;;;;;6246615;22;20497;-64
2022/12/07 08:43:54;;;;;;;7.97;7.30;;;5.50;99.90;;;;;;6246326;23;20489;-64
2022/12/07 08:46:26;;;;;;;7.77;7.03;;;5.50;99.90;;;;;;6246452;23;20949;-64
2022/12/07 08:48:56;;;;;;;9.80;8.10;;;5.60;99.90;;;;;;6246509;23;20396;-64
2022/12/07 08:51:24;;;;;;;13.47;8.30;;;5.70;99.90;;;;;;6246480;22;20437;-64
2022/12/07 08:53:51;;;;;;;10.53;9.47;;;5.70;99.90;;;;;;6246376;23;20461;-64
2022/12/07 08:56:19;;;;;;;10.63;9.03;;;5.70;99.90;;;;;;6247383;23;20504;-64
2022/12/07 08:58:45;;;;;;;10.03;9.03;;;5.70;99.90;;;;;;6247932;23;20958;-64
2022/12/07 09:01:13;;;;;;;8.77;7.87;;;5.70;99.90;;;;;;6248173;22;20439;-65
2022/12/07 09:03:40;;;;;;;9.00;8.10;;;5.70;99.90;;;;;;6248436;23;20419;-64
2022/12/07 09:06:08;;;;;;;8.93;8.00;;;5.80;99.90;;;;;;6248374;23;20411;-64
2022/12/07 09:08:40;;;;;;;8.50;7.80;;;5.90;99.90;;;;;;6248341;23;20411;-64
2022/12/07 09:11:06;;;;;;;10.73;7.27;;;6.00;99.90;;;;;;6248242;22;20486;-65
2022/12/07 09:13:33;;;;;;;8.80;8.00;;;6.10;99.90;;;;;;6248198;23;20415;-65
2022/12/07 09:16:00;;;;;;;7.67;6.90;;;6.20;99.90;;;;;;6248328;23;20485;-65
2022/12/07 09:18:28;;;;;;;8.03;7.30;;;6.20;99.90;;;;;;6248282;23;20493;-65
2022/12/07 09:20:54;;;;;;;8.23;7.50;;;6.30;99.90;;;;;;6248243;22;20430;-65
2022/12/07 09:23:21;;;;;;;8.23;7.43;;;6.30;99.90;;;;;;6248066;23;20418;-65
2022/12/07 09:25:47;;;;;;;7.57;6.87;;;6.40;99.90;;;;;;6248034;23;20415;-65
2022/12/07 09:28:14;;;;;;;12.73;7.73;;;6.50;99.90;;;;;;6247775;23;20892;-65
2022/12/07 09:30:46;;;;;;;7.10;6.50;;;6.50;99.90;;;;;;6248209;22;20430;-65
2022/12/07 09:33:13;;;;;;;5.80;5.30;;;6.60;99.90;;;;;;6247963;23;20453;-66
2022/12/07 09:35:46;;;;;;;5.13;4.83;;;6.60;99.90;;;;;;6247799;23;20771;-65
2022/12/07 09:38:13;;;;;;;5.70;5.27;;;6.60;99.90;;;;;;6248828;23;20395;-65
2022/12/07 09:40:40;;;;;;;5.80;5.33;;;6.60;99.90;;;;;;6249110;22;20485;-65
2022/12/07 09:43:14;;;;;;;5.90;5.40;;;6.60;99.90;;;;;;6248096;23;20417;-65
2022/12/07 09:45:41;;;;;;;9.10;6.40;;;6.60;99.90;;;;;;6247659;23;20445;-64
2022/12/07 09:48:18;;;;;;;6.50;5.90;;;6.60;99.90;;;;;;6247998;23;20415;-65
2022/12/07 09:50:47;;;;;;;6.33;5.80;;;6.60;99.90;;;;;;6247992;22;20518;-65
2022/12/07 09:53:18;;;;;;;6.80;6.30;;;6.60;99.90;;;;;;6248014;23;20783;-65
2022/12/07 09:55:45;;;;;;;7.43;6.83;;;6.70;99.90;;;;;;6247838;23;20406;-64
2022/12/07 09:58:20;;;;;;;7.10;6.47;;;6.70;99.90;;;;;;6247890;23;20493;-64
2022/12/07 10:00:47;;;;;;;6.90;6.30;;;6.70;99.90;;;;;;6247621;22;20507;-64
2022/12/07 10:03:13;;;;;;;7.27;6.73;;;6.80;99.90;;;;;;6248008;23;20464;-64
2022/12/07 10:05:43;;;;;;;7.13;6.53;;;6.80;99.90;;;;;;6248168;23;20464;-64
2022/12/07 10:08:13;;;;;;;6.93;6.37;;;6.80;99.90;;;;;;6247680;23;20414;-65
2022/12/07 10:10:41;;;;;;;7.07;6.47;;;6.80;99.90;;;;;;6247786;22;20454;-64
2022/12/07 10:13:10;;;;;;;7.10;6.40;;;6.80;99.90;;;;;;6247588;23;20919;-66
2022/12/07 10:15:55;;;;;;;6.00;5.40;;;6.80;99.90;;;;;;6248143;23;20407;-65
2022/12/07 10:18:30;;;;;;;6.40;5.90;;;6.80;99.90;;;;;;6257470;23;20390;-65
2022/12/07 10:21:14;;;;;;;6.30;5.70;;;6.70;99.90;;;;;;6264587;22;20431;-65
2022/12/07 10:23:59;;;;;;;9.90;5.70;;;6.70;99.90;;;;;;6261699;23;20396;-66
2022/12/07 10:26:32;;;;;;;4.87;4.57;;;6.70;99.90;;;;;;6249167;23;20395;-65
2022/12/07 10:29:02;;;;;;;4.80;4.50;;;6.70;99.90;;;;;;6249743;23;20395;-65
2022/12/07 10:31:29;;;;;;;5.27;4.87;;;6.80;99.90;;;;;;6248984;22;20437;-66
2022/12/07 10:33:58;;;;;;;4.87;4.47;;;6.80;99.90;;;;;;6247930;23;20411;-65
2022/12/07 10:36:26;;;;;;;6.13;5.63;;;6.90;99.90;;;;;;6248092;23;20434;-65
2022/12/07 10:39:01;;;;;;;5.70;5.13;;;6.90;99.90;;;;;;6248160;23;20751;-64
2022/12/07 10:41:28;;;;;;;6.47;4.43;;;6.80;99.90;;;;;;6247884;22;20437;-64
2022/12/07 10:43:56;;;;;;;5.23;4.83;;;6.80;99.90;;;;;;6247568;23;20410;-65
2022/12/07 10:46:52;;;;;;;5.63;5.20;;;6.80;99.90;;;;;;6247544;23;20457;-65
2022/12/07 10:49:43;;;;;;;5.70;5.30;;;6.80;99.90;;;;;;6248110;23;20395;-65
2022/12/07 10:52:18;;;;;;;7.77;5.00;;;6.70;99.90;;;;;;6247227;22;20437;-66
2022/12/07 10:54:58;;;;;;;6.03;5.53;;;6.80;99.90;;;;;;6247884;23;20395;-65
2022/12/07 10:57:37;;;;;;;5.87;5.47;;;6.70;99.90;;;;;;6247041;23;20468;-65
2022/12/07 11:00:16;;;;;;;5.77;5.27;;;6.70;99.90;;;;;;6247579;23;20398;-65
2022/12/07 11:03:24;;;;;;;6.30;5.70;;;6.70;99.90;;;;;;6257864;23;20391;-65
2022/12/07 11:05:57;;;;;;;6.07;5.30;;;6.60;99.90;;;;;;6247454;23;20398;-65
2022/12/07 11:08:40;;;;;;;7.33;6.63;;;6.70;99.90;;;;;;6247436;23;20395;-66
2022/12/07 11:11:14;;;;;;;6.13;5.63;;;6.60;99.90;;;;;;6246778;22;20989;-65
2022/12/07 11:13:48;;;;;;;6.53;5.90;;;6.60;99.90;;;;;;6246797;23;20474;-65
2022/12/07 11:16:24;;;;;;;7.20;6.60;;;6.60;99.90;;;;;;6246988;23;20453;-65
2022/12/07 11:19:05;;;;;;;7.00;6.40;;;6.60;99.90;;;;;;6246677;23;20856;-65
2022/12/07 11:21:41;;;;;;;6.33;5.73;;;6.50;99.90;;;;;;6246950;22;20438;-65
2022/12/07 11:24:14;;;;;;;6.63;6.20;;;6.40;99.90;;;;;;6247626;23;20448;-65
2022/12/07 11:27:01;;;;;;;7.93;7.00;;;6.40;99.90;;;;;;6247322;23;20718;-65
2022/12/07 11:29:43;;;;;;;9.27;8.37;;;6.30;99.90;;;;;;6247126;23;20760;-65
2022/12/07 11:32:19;;;;;;;8.00;7.20;;;6.30;99.90;;;;;;6247000;22;20431;-65
2022/12/07 11:34:57;;;;;;;8.50;7.83;;;6.30;99.90;;;;;;6247020;23;20460;-65
2022/12/07 11:37:31;;;;;;;9.70;8.30;;;6.30;99.90;;;;;;6246974;23;20794;-65
2022/12/07 11:40:02;;;;;;;9.97;9.07;;;6.30;99.90;;;;;;6247224;23;20399;-65
2022/12/07 11:42:36;;;;;;;9.37;8.60;;;6.40;99.90;;;;;;6246957;22;20438;-65
2022/12/07 11:45:11;;;;;;;9.73;8.93;;;6.40;99.90;;;;;;6246605;23;20460;-65
2022/12/07 11:47:46;;;;;;;9.63;8.83;;;6.50;99.90;;;;;;6246533;23;20440;-65
2022/12/07 11:50:24;;;;;;;8.73;7.93;;;6.50;99.90;;;;;;6246725;23;20402;-65
2022/12/07 11:52:56;;;;;;;10.63;8.50;;;6.60;99.90;;;;;;6247053;23;20453;-65
2022/12/07 11:55:30;;;;;;;10.17;9.03;;;6.70;99.90;;;;;;6247012;23;20395;-66
2022/12/07 11:58:05;;;;;;;9.60;8.70;;;6.70;99.90;;;;;;6246941;23;20423;-65
2022/12/07 12:00:32;;;;;;;9.00;8.30;;;6.80;99.90;;;;;;6247295;22;20394;-66
2022/12/07 12:03:04;;;;;;;10.23;9.33;;;6.80;99.90;;;;;;6247528;23;20403;-66
2022/12/07 12:05:31;;;;;;;9.33;8.43;;;6.90;99.90;;;;;;6248029;23;20399;-65
2022/12/07 12:08:05;;;;;;;9.53;8.37;;;6.80;99.90;;;;;;6247319;23;20472;-66
2022/12/07 12:10:41;;;;;;;8.70;7.90;;;6.80;99.90;;;;;;6246643;22;20771;-66
2022/12/07 12:13:28;;;;;;;10.60;9.50;;;6.80;99.90;;;;;;6247862;23;20395;-65
2022/12/07 12:16:15;;;;;;;9.43;8.60;;;6.90;99.90;;;;;;6246302;23;20777;-66
2022/12/07 12:19:09;;;;;;;9.60;8.70;;;6.90;99.90;;;;;;6247341;23;20419;-66
2022/12/07 12:21:36;;;;;;;9.80;8.80;;;7.00;99.90;;;;;;6184088;22;20485;-66
2022/12/07 12:24:07;;;;;;;9.60;8.70;;;7.10;99.90;;;;;;6247538;23;20485;-65
2022/12/07 12:26:37;;;;;;;10.37;8.53;;;7.10;99.90;;;;;;6247954;23;20744;-65
2022/12/07 12:29:08;;;;;;;9.30;8.50;;;7.10;99.90;;;;;;6247960;23;20453;-65
2022/12/07 12:31:39;;;;;;;9.67;8.77;;;7.10;99.90;;;;;;6249681;22;20478;-66
2022/12/07 12:34:38;;;;;;;11.50;10.40;;;7.10;99.90;;;;;;6250713;23;20399;-66
2022/12/07 12:37:29;;;;;;;10.10;9.30;;;7.00;99.90;;;;;;6250064;23;20418;-66
2022/12/07 12:40:33;;;;;;;10.40;9.37;;;7.00;99.90;;;;;;6248258;23;20407;-65
2022/12/07 12:43:00;;;;;;;9.80;8.97;;;7.00;99.90;;;;;;6249753;23;20411;-66
2022/12/07 12:45:28;;;;;;;13.20;9.17;;;6.90;99.90;;;;;;6249078;23;20410;-65
2022/12/07 12:48:00;;;;;;;10.40;9.57;;;6.90;99.90;;;;;;6249751;23;20413;-65
2022/12/07 12:50:34;;;;;;;10.50;9.50;;;6.90;99.90;;;;;;6249687;22;20856;-65
2022/12/07 12:53:16;;;;;;;11.90;10.70;;;6.90;99.90;;;;;;6248976;23;20898;-64
2022/12/07 12:56:11;;;;;;;10.70;9.60;;;6.80;99.90;;;;;;6250423;23;20403;-66
2022/12/07 12:58:41;;;;;;;9.33;8.53;;;6.80;99.90;;;;;;6249945;23;20434;-66
2022/12/07 13:01:48;;;;;;;11.00;9.13;;;6.80;99.90;;;;;;6249250;22;20439;-65
2022/12/07 13:04:40;;;;;;;9.00;8.30;;;6.70;99.90;;;;;;6249224;23;20444;-65
2022/12/07 13:07:14;;;;;;;11.07;10.17;;;6.80;99.90;;;;;;6250484;23;20391;-66
2022/12/07 13:09:44;;;;;;;10.40;9.53;;;6.80;99.90;;;;;;6249327;23;20434;-65
2022/12/07 13:12:15;;;;;;;10.53;9.40;;;6.80;99.90;;;;;;6249858;22;20435;-65
2022/12/07 13:14:57;;;;;;;10.90;10.00;;;6.70;99.90;;;;;;6250015;23;20453;-66
2022/12/07 13:18:00;;;;;;;12.03;10.83;;;6.70;99.90;;;;;;6249934;23;20434;-65
2022/12/07 13:20:55;;;;;;;12.10;10.93;;;6.70;99.90;;;;;;6249836;22;20469;-65
2022/12/07 13:23:27;;;;;;;13.20;11.97;;;6.70;99.90;;;;;;6188763;23;20414;-65
2022/12/07 13:26:17;;;;;;;13.43;12.17;;;6.60;99.90;;;;;;6267734;23;20387;-66
2022/12/07 13:28:46;;;;;;;15.67;11.33;;;6.60;99.90;;;;;;6265490;23;20391;-65
2022/12/07 13:31:36;;;;;;;12.63;11.53;;;6.60;99.90;;;;;;6253798;22;20488;-66
2022/12/07 13:34:04;;;;;;;13.50;11.73;;;6.60;99.90;;;;;;6242486;23;20465;-67
2022/12/07 13:36:35;;;;;;;13.10;11.90;;;6.60;99.90;;;;;;6251768;23;20407;-66
2022/12/07 13:39:19;;;;;;;13.30;12.00;;;6.60;99.90;;;;;;6249408;23;20426;-66
2022/12/07 13:41:51;;;;;;;12.80;11.50;;;6.60;99.90;;;;;;6248662;22;20430;-66
2022/12/07 13:44:18;;;;;;;11.77;10.60;;;6.60;99.90;;;;;;6249680;23;20450;-65
2022/12/07 13:46:53;;;;;;;11.93;10.80;;;6.60;99.90;;;;;;6249338;23;20461;-67
2022/12/07 13:49:22;;;;;;;15.70;11.87;;;6.70;99.90;;;;;;6249400;23;20484;-65
2022/12/07 13:51:49;;;;;;;12.77;11.67;;;6.70;99.90;;;;;;6249705;22;20431;-65
2022/12/07 13:54:18;;;;;;;12.50;11.30;;;6.70;99.90;;;;;;6251361;23;20744;-67
2022/12/07 13:56:49;;;;;;;13.97;12.57;;;6.70;99.90;;;;;;6251717;23;20410;-66
2022/12/07 13:59:19;;;;;;;15.13;13.73;;;6.70;99.90;;;;;;6249503;23;20427;-66
2022/12/07 14:01:47;;;;;;;12.90;11.77;;;6.70;99.90;;;;;;6252032;22;20449;-66
2022/12/07 14:04:19;;;;;;;13.80;12.60;;;6.70;99.90;;;;;;6252802;23;20733;-67
2022/12/07 14:06:51;;;;;;;14.20;12.90;;;6.70;99.90;;;;;;6252047;23;20411;-68
2022/12/07 14:09:22;;;;;;;14.20;12.60;;;6.70;99.90;;;;;;6250657;23;20407;-66
2022/12/07 14:11:50;;;;;;;17.40;12.83;;;6.70;99.90;;;;;;6249943;22;20488;-67
2022/12/07 14:14:20;;;;;;;13.80;12.50;;;6.60;99.90;;;;;;6248594;23;20411;-65
2022/12/07 14:16:58;;;;;;;15.40;13.80;;;6.60;99.90;;;;;;6248026;23;20461;-66
2022/12/07 14:19:46;;;;;;;14.83;13.43;;;6.60;99.90;;;;;;6248115;23;20391;-65
2022/12/07 14:22:25;;;;;;;14.90;13.40;;;6.60;99.90;;;;;;6248021;22;20453;-65
2022/12/07 14:25:00;;;;;;;14.83;13.40;;;6.60;99.90;;;;;;6248506;23;20447;-66
2022/12/07 14:27:33;;;;;;;16.03;14.33;;;6.60;99.90;;;;;;6247542;23;20394;-65
2022/12/07 14:30:01;;;;;;;14.80;13.27;;;6.50;99.90;;;;;;6247576;23;20395;-65
2022/12/07 14:32:29;;;;;;;14.63;13.23;;;6.40;99.90;;;;;;6248579;22;20459;-65
2022/12/07 14:34:57;;;;;;;13.97;12.67;;;6.30;99.90;;;;;;6247007;23;20895;-65
2022/12/07 14:37:24;;;;;;;13.53;12.23;;;6.20;99.90;;;;;;6247313;23;20456;-65
2022/12/07 14:39:51;;;;;;;16.20;13.93;;;6.10;99.90;;;;;;6247445;23;20526;-66
2022/12/07 14:42:20;;;;;;;14.17;12.73;;;6.00;99.90;;;;;;6258151;22;20742;-66
2022/12/07 14:44:47;;;;;;;15.07;13.57;;;6.00;99.90;;;;;;6247792;23;20414;-65
2022/12/07 14:47:13;;;;;;;15.93;13.23;;;6.00;99.90;;;;;;6247400;23;20468;-65
2022/12/07 14:49:40;;;;;;;14.10;12.77;;;5.90;99.90;;;;;;6247361;23;20414;-64
2022/12/07 14:52:10;;;;;;;14.57;13.07;;;5.90;99.90;;;;;;6247140;22;20489;-64
2022/12/07 14:54:37;;;;;;;15.53;12.23;;;5.90;99.90;;;;;;6246922;23;20474;-65
2022/12/07 14:57:03;;;;;;;14.00;12.50;;;5.80;99.90;;;;;;6247404;23;20414;-66
2022/12/07 14:59:31;;;;;;;12.57;11.43;;;5.80;99.90;;;;;;6247150;23;20484;-64
2022/12/07 15:01:58;;;;;;;17.33;12.87;;;5.80;99.90;;;;;;6246683;22;20869;-65
2022/12/07 15:04:25;;;;;;;14.10;12.63;;;5.70;99.90;;;;;;6247621;23;20395;-66
2022/12/07 15:06:59;;;;;;;14.67;12.40;;;5.60;99.90;;;;;;6247831;23;20434;-64
2022/12/07 15:09:25;;;;;;;14.90;13.47;;;5.70;99.90;;;;;;6247552;23;20465;-64
2022/12/07 15:11:52;;;;;;;15.10;13.30;;;5.70;99.90;;;;;;6247446;22;20481;-64
2022/12/07 15:14:19;;;;;;;12.60;10.97;;;5.70;99.90;;;;;;6247103;23;20461;-65
2022/12/07 15:16:47;;;;;;;13.40;12.20;;;5.70;99.90;;;;;;6247666;23;20449;-65
2022/12/07 15:19:15;;;;;;;13.53;12.20;;;5.70;99.90;;;;;;6246564;23;20488;-65
2022/12/07 15:21:42;;;;;;;13.77;12.47;;;5.60;99.90;;;;;;6246936;22;20481;-65
2022/12/07 15:24:10;;;;;;;12.80;11.67;;;5.60;99.90;;;;;;6246836;23;20467;-65
2022/12/07 15:26:37;;;;;;;13.57;12.27;;;5.60;99.90;;;;;;6246875;23;20446;-65
2022/12/07 15:29:05;;;;;;;15.13;13.53;;;5.50;99.90;;;;;;6246847;23;20407;-65
2022/12/07 15:31:31;;;;;;;15.20;13.70;;;5.50;99.90;;;;;;6246796;22;20431;-65
2022/12/07 15:33:59;;;;;;;15.53;14.03;;;5.50;99.90;;;;;;6246892;23;20410;-65
2022/12/07 15:36:29;;;;;;;17.33;14.47;;;5.50;99.90;;;;;;6246718;23;20727;-65
2022/12/07 15:38:57;;;;;;;16.40;14.77;;;5.50;99.90;;;;;;6246636;23;20545;-65
2022/12/07 15:41:23;;;;;;;16.37;14.30;;;5.50;99.90;;;;;;6246578;22;20484;-66
2022/12/07 15:46:37;;;;;;;17.37;15.30;;;5.50;99.90;;;;;;6246405;23;20381;-65
2022/12/07 15:49:07;;;;;;;17.33;15.57;;;5.40;99.90;;;;;;6247786;23;20406;-65
2022/12/07 15:51:33;;;;;;;18.00;15.40;;;5.40;99.90;;;;;;6246955;22;20488;-65
2022/12/07 15:54:00;;;;;;;17.43;15.63;;;5.40;99.90;;;;;;6246674;23;20468;-65
2022/12/07 15:56:27;;;;;;;18.20;16.37;;;5.30;99.90;;;;;;6246627;23;20461;-65
2022/12/07 15:58:53;;;;;;;20.10;18.00;;;5.40;99.90;;;;;;6246688;23;20492;-65
2022/12/07 16:01:20;;;;;;;21.00;16.40;;;5.30;99.90;;;;;;6246006;22;20940;-64
2022/12/07 16:03:47;;;;;;;22.57;17.00;;;5.30;99.90;;;;;;6246317;23;20411;-66
2022/12/07 16:06:18;;;;;;;18.53;16.53;;;5.30;99.90;;;;;;6246600;23;20411;-65
2022/12/07 16:08:46;;;;;;;19.97;17.50;;;5.30;99.90;;;;;;6246601;23;20395;-64
2022/12/07 16:11:13;;;;;;;17.87;16.07;;;5.30;99.90;;;;;;6246559;22;20431;-64
2022/12/07 16:13:40;;;;;;;19.20;17.17;;;5.30;99.90;;;;;;6246281;23;20899;-65
2022/12/07 16:16:09;;;;;;;18.53;16.63;;;5.30;99.90;;;;;;6246734;23;20407;-64
2022/12/07 16:18:35;;;;;;;19.90;16.10;;;5.30;99.90;;;;;;6246518;23;20435;-64
2022/12/07 16:21:02;;;;;;;18.70;16.70;;;5.20;99.90;;;;;;6246370;22;20542;-66
2022/12/07 16:23:31;;;;;;;18.50;16.50;;;5.20;99.90;;;;;;6246455;23;20411;-64
2022/12/07 16:26:05;;;;;;;20.30;16.03;;;5.10;99.90;;;;;;6246493;23;20410;-64
2022/12/07 16:28:31;;;;;;;18.23;16.23;;;5.10;99.90;;;;;;6246366;23;20497;-64
2022/12/07 16:31:02;;;;;;;16.80;15.10;;;5.10;99.90;;;;;;6246098;22;20431;-64
2022/12/07 16:33:28;;;;;;;18.43;15.57;;;5.10;99.90;;;;;;6246339;23;20414;-64
2022/12/07 16:35:55;;;;;;;17.57;15.87;;;5.10;99.90;;;;;;6246382;23;20410;-64
2022/12/07 16:38:22;;;;;;;17.30;15.50;;;5.00;99.90;;;;;;6246188;23;20431;-64
2022/12/07 16:40:50;;;;;;;17.90;16.10;;;5.00;99.90;;;;;;6246310;22;20431;-64
2022/12/07 16:43:16;;;;;;;16.33;14.63;;;5.00;99.90;;;;;;6246222;23;20445;-64
2022/12/07 16:45:43;;;;;;;16.83;14.90;;;4.90;99.90;;;;;;6246255;23;20414;-64
2022/12/07 16:48:09;;;;;;;17.63;15.20;;;4.90;99.90;;;;;;6246201;23;20437;-64
2022/12/07 16:50:40;;;;;;;18.20;15.83;;;4.90;99.90;;;;;;6246027;22;20943;-64
2022/12/07 16:53:06;;;;;;;17.13;15.43;;;4.80;99.90;;;;;;6246475;23;20391;-64
2022/12/07 16:55:36;;;;;;;16.20;14.70;;;4.70;99.90;;;;;;6246442;23;20419;-64
2022/12/07 16:58:04;;;;;;;16.37;14.70;;;4.70;99.90;;;;;;6246087;23;20399;-64
2022/12/07 17:00:31;;;;;;;16.20;14.70;;;4.70;99.90;;;;;;6245920;22;20415;-65
2022/12/07 17:02:58;;;;;;;17.73;15.67;;;4.60;99.90;;;;;;6246615;23;20402;-65
2022/12/07 17:05:26;;;;;;;27.63;22.40;;;4.60;99.90;;;;;;6247344;23;20782;-65
2022/12/07 17:07:53;;;;;;;19.83;17.00;;;4.50;99.90;;;;;;6246329;23;20415;-65
2022/12/07 17:10:20;;;;;;;17.20;15.40;;;4.60;99.90;;;;;;6247155;22;20411;-65
2022/12/07 17:12:47;;;;;;;18.30;16.40;;;4.50;99.90;;;;;;6247261;23;20410;-65
2022/12/07 17:15:17;;;;;;;18.20;16.40;;;4.50;99.90;;;;;;6246489;23;20411;-65
2022/12/07 17:17:43;;;;;;;16.87;15.13;;;4.50;99.90;;;;;;6247567;23;20414;-65
2022/12/07 17:20:11;;;;;;;17.03;15.40;;;4.60;99.90;;;;;;6248500;23;20442;-65
2022/12/07 17:22:38;;;;;;;14.80;12.93;;;4.60;99.90;;;;;;6247993;22;20431;-65
2022/12/07 17:25:05;;;;;;;24.83;22.23;;;4.60;99.90;;;;;;6247778;23;20895;-65
2022/12/07 17:27:32;;;;;;;17.13;15.50;;;4.60;99.90;;;;;;6247603;23;20950;-64
2022/12/07 17:29:59;;;;;;;19.67;17.67;;;4.60;99.90;;;;;;6247650;23;20407;-64
2022/12/07 17:32:27;;;;;;;14.63;13.23;;;4.60;99.90;;;;;;6247982;22;20430;-64
2022/12/07 17:34:53;;;;;;;15.17;13.77;;;4.60;99.90;;;;;;6248244;23;20468;-64
2022/12/07 17:37:20;;;;;;;16.57;14.97;;;4.60;99.90;;;;;;6248126;23;20461;-65
2022/12/07 17:39:47;;;;;;;16.00;14.40;;;4.60;99.90;;;;;;6247935;23;20481;-65
2022/12/07 17:44:58;;;;;;;17.90;16.13;;;4.60;99.90;;;;;;6248756;23;20863;-65
2022/12/07 17:47:25;;;;;;;17.20;15.60;;;4.60;99.90;;;;;;6248656;23;20817;-66
2022/12/07 17:49:52;;;;;;;15.43;14.03;;;4.60;99.90;;;;;;6249029;23;20911;-66
2022/12/07 17:55:04;;;;;;;14.20;12.90;;;4.60;99.90;;;;;;6249329;23;20386;-66
2022/12/07 17:57:31;;;;;;;13.77;12.47;;;4.60;99.90;;;;;;6249436;23;20716;-66
2022/12/07 17:59:58;;;;;;;14.37;12.97;;;4.60;99.90;;;;;;6249538;23;20435;-65
2022/12/07 18:02:24;;;;;;;13.90;12.70;;;4.60;99.90;;;;;;6248054;22;20936;-64
2022/12/07 18:04:52;;;;;;;12.37;11.20;;;4.60;99.90;;;;;;6248631;23;20895;-65
2022/12/07 18:07:19;;;;;;;13.90;12.70;;;4.60;99.90;;;;;;6248971;23;20498;-65
2022/12/07 18:09:46;;;;;;;13.33;12.07;;;4.60;99.90;;;;;;6249032;23;20891;-65
2022/12/07 18:12:12;;;;;;;15.90;14.13;;;4.60;99.90;;;;;;6249402;22;20947;-64
2022/12/07 18:14:39;;;;;;;13.30;12.10;;;4.70;99.90;;;;;;6250609;23;20411;-63
2022/12/07 18:17:06;;;;;;;13.30;12.10;;;4.60;99.90;;;;;;6251351;23;20411;-64